sensor_id;sensor_type;location;lat;lon;timestamp;temperature;humidity
6843;DHT22;3460;52.028;8.916;2023-02-12T00:01:07;7.70;99.90
6843;DHT22;3460;52.028;8.916;2023-02-12T00:03:34;7.70;99.90
6843;DHT22;3460;52.028;8.916;2023-02-12T00:06:03;7.70;99.90
6843;DHT22;3460;52.028;8.916;2023-02-12T00:08:29;7.70;99.90
6843;DHT22;3460;52.028;8.916;2023-02-12T00:10:56;7.60;99.90
6843;DHT22;3460;52.028;8.916;2023-02-12T00:13:22;7.60;99.90
6843;DHT22;3460;52.028;8.916;2023-02-12T00:15:49;7.60;99.90
6843;DHT22;3460;52.028;8.916;2023-02-12T00:18:16;7.60;99.90
6843;DHT22;3460;52.028;8.916;2023-02-12T00:20:42;7.60;99.90
6843;DHT22;3460;52.028;8.916;2023-02-12T00:23:10;7.60;99.90
6843;DHT22;3460;52.028;8.916;2023-02-12T00:25:40;7.60;99.90
6843;DHT22;3460;52.028;8.916;2023-02-12T00:28:07;7.50;99.90
6843;DHT22;3460;52.028;8.916;2023-02-12T00:30:34;7.50;99.90
6843;DHT22;3460;52.028;8.916;2023-02-12T00:33:00;7.50;99.90
6843;DHT22;3460;52.028;8.916;2023-02-12T00:35:27;7.60;99.90
6843;DHT22;3460;52.028;8.916;2023-02-12T00:37:54;7.60;99.90
6843;DHT22;3460;52.028;8.916;2023-02-12T00:40:21;7.60;99.90
6843;DHT22;3460;52.028;8.916;2023-02-12T00:42:48;7.60;99.90
6843;DHT22;3460;52.028;8.916;2023-02-12T00:45:15;7.60;99.90
6843;DHT22;3460;52.028;8.916;2023-02-12T00:47:41;7.60;99.90
6843;DHT22;3460;52.028;8.916;2023-02-12T00:50:09;7.60;99.90
6843;DHT22;3460;52.028;8.916;2023-02-12T00:52:35;7.60;99.90
6843;DHT22;3460;52.028;8.916;2023-02-12T00:55:02;7.60;99.90
6843;DHT22;3460;52.028;8.916;2023-02-12T00:57:30;7.60;99.90
6843;DHT22;3460;52.028;8.916;2023-02-12T00:59:57;7.60;99.90
6843;DHT22;3460;52.028;8.916;2023-02-12T01:02:24;7.60;99.90
6843;DHT22;3460;52.028;8.916;2023-02-12T01:04:51;7.60;99.90
6843;DHT22;3460;52.028;8.916;2023-02-12T01:07:18;7.60;99.90
6843;DHT22;3460;52.028;8.916;2023-02-12T01:09:44;7.60;99.90
6843;DHT22;3460;52.028;8.916;2023-02-12T01:12:11;7.60;99.90
6843;DHT22;3460;52.028;8.916;2023-02-12T01:14:39;7.60;99.90
6843;DHT22;3460;52.028;8.916;2023-02-12T01:17:07;7.60;99.90
6843;DHT22;3460;52.028;8.916;2023-02-12T01:19:33;7.70;99.90
6843;DHT22;3460;52.028;8.916;2023-02-12T01:22:00;7.60;99.90
6843;DHT22;3460;52.028;8.916;2023-02-12T01:24:26;7.60;99.90
6843;DHT22;3460;52.028;8.916;2023-02-12T01:26:53;7.60;99.90
6843;DHT22;3460;52.028;8.916;2023-02-12T01:29:20;7.60;99.90
6843;DHT22;3460;52.028;8.916;2023-02-12T01:31:47;7.60;99.90
6843;DHT22;3460;52.028;8.916;2023-02-12T01:34:14;7.60;99.90
6843;DHT22;3460;52.028;8.916;2023-02-12T01:36:41;7.50;99.90
6843;DHT22;3460;52.028;8.916;2023-02-12T01:39:09;7.50;99.90
6843;DHT22;3460;52.028;8.916;2023-02-12T01:41:40;7.50;99.90
6843;DHT22;3460;52.028;8.916;2023-02-12T01:44:10;7.50;99.90
6843;DHT22;3460;52.028;8.916;2023-02-12T01:46:37;7.50;99.90
6843;DHT22;3460;52.028;8.916;2023-02-12T01:49:09;7.50;99.90
6843;DHT22;3460;52.028;8.916;2023-02-12T01:51:37;7.50;99.90
6843;DHT22;3460;52.028;8.916;2023-02-12T01:54:06;7.40;99.90
6843;DHT22;3460;52.028;8.916;2023-02-12T01:56:34;7.40;99.90
6843;DHT22;3460;52.028;8.916;2023-02-12T01:59:00;7.40;99.90
6843;DHT22;3460;52.028;8.916;2023-02-12T02:01:28;7.40;99.90
6843;DHT22;3460;52.028;8.916;2023-02-12T02:03:59;7.50;99.90
6843;DHT22;3460;52.028;8.916;2023-02-12T02:06:31;7.50;99.90
6843;DHT22;3460;52.028;8.916;2023-02-12T02:08:59;7.40;99.90
6843;DHT22;3460;52.028;8.916;2023-02-12T02:11:26;7.40;99.90
6843;DHT22;3460;52.028;8.916;2023-02-12T02:14:10;7.40;99.90
6843;DHT22;3460;52.028;8.916;2023-02-12T02:19:54;7.40;99.90
6843;DHT22;3460;52.028;8.916;2023-02-12T02:22:31;7.40;99.90
6843;DHT22;3460;52.028;8.916;2023-02-12T02:25:35;7.40;99.90
6843;DHT22;3460;52.028;8.916;2023-02-12T02:28:20;7.40;99.90
6843;DHT22;3460;52.028;8.916;2023-02-12T02:30:54;7.40;99.90
6843;DHT22;3460;52.028;8.916;2023-02-12T02:33:30;7.30;99.90
6843;DHT22;3460;52.028;8.916;2023-02-12T02:36:13;7.30;99.90
6843;DHT22;3460;52.028;8.916;2023-02-12T02:38:44;7.30;99.90
6843;DHT22;3460;52.028;8.916;2023-02-12T02:41:18;7.30;99.90
6843;DHT22;3460;52.028;8.916;2023-02-12T02:43:48;7.30;99.90
6843;DHT22;3460;52.028;8.916;2023-02-12T02:46:19;7.30;99.90
6843;DHT22;3460;52.028;8.916;2023-02-12T02:48:51;7.30;99.90
6843;DHT22;3460;52.028;8.916;2023-02-12T02:51:21;7.30;99.90
6843;DHT22;3460;52.028;8.916;2023-02-12T02:53:53;7.30;99.90
6843;DHT22;3460;52.028;8.916;2023-02-12T02:56:23;7.30;99.90
6843;DHT22;3460;52.028;8.916;2023-02-12T02:58:54;7.30;99.90
6843;DHT22;3460;52.028;8.916;2023-02-12T03:01:26;7.30;99.90
6843;DHT22;3460;52.028;8.916;2023-02-12T03:03:59;7.30;99.90
6843;DHT22;3460;52.028;8.916;2023-02-12T03:06:32;7.30;99.90
6843;DHT22;3460;52.028;8.916;2023-02-12T03:09:03;7.30;99.90
6843;DHT22;3460;52.028;8.916;2023-02-12T03:11:33;7.30;99.90
6843;DHT22;3460;52.028;8.916;2023-02-12T03:14:04;7.30;99.90
6843;DHT22;3460;52.028;8.916;2023-02-12T03:16:37;7.30;99.90
6843;DHT22;3460;52.028;8.916;2023-02-12T03:19:10;7.30;99.90
6843;DHT22;3460;52.028;8.916;2023-02-12T03:21:41;7.20;99.90
6843;DHT22;3460;52.028;8.916;2023-02-12T03:24:12;7.30;99.90
6843;DHT22;3460;52.028;8.916;2023-02-12T03:26:44;7.20;99.90
6843;DHT22;3460;52.028;8.916;2023-02-12T03:29:12;7.20;99.90
6843;DHT22;3460;52.028;8.916;2023-02-12T03:31:50;7.20;99.90
6843;DHT22;3460;52.028;8.916;2023-02-12T03:34:26;7.20;99.90
6843;DHT22;3460;52.028;8.916;2023-02-12T03:36:59;7.20;99.90
6843;DHT22;3460;52.028;8.916;2023-02-12T03:39:32;7.20;99.90
6843;DHT22;3460;52.028;8.916;2023-02-12T03:42:04;7.20;99.90
6843;DHT22;3460;52.028;8.916;2023-02-12T03:44:47;7.20;99.90
6843;DHT22;3460;52.028;8.916;2023-02-12T03:47:23;7.20;99.90
6843;DHT22;3460;52.028;8.916;2023-02-12T03:49:59;7.20;99.90
6843;DHT22;3460;52.028;8.916;2023-02-12T03:52:28;7.20;99.90
6843;DHT22;3460;52.028;8.916;2023-02-12T03:54:55;7.20;99.90
6843;DHT22;3460;52.028;8.916;2023-02-12T03:57:25;7.20;99.90
6843;DHT22;3460;52.028;8.916;2023-02-12T03:59:56;7.20;99.90
6843;DHT22;3460;52.028;8.916;2023-02-12T04:02:24;7.20;99.90
6843;DHT22;3460;52.028;8.916;2023-02-12T04:04:51;7.20;99.90
6843;DHT22;3460;52.028;8.916;2023-02-12T04:07:17;7.20;99.90
6843;DHT22;3460;52.028;8.916;2023-02-12T04:09:44;7.20;99.90
6843;DHT22;3460;52.028;8.916;2023-02-12T04:12:38;7.20;99.90
6843;DHT22;3460;52.028;8.916;2023-02-12T04:15:24;7.20;99.90
6843;DHT22;3460;52.028;8.916;2023-02-12T04:18:00;7.10;99.90
6843;DHT22;3460;52.028;8.916;2023-02-12T04:20:36;7.10;99.90
6843;DHT22;3460;52.028;8.916;2023-02-12T04:23:13;7.10;99.90
6843;DHT22;3460;52.028;8.916;2023-02-12T04:25:50;7.10;99.90
6843;DHT22;3460;52.028;8.916;2023-02-12T04:28:26;7.10;99.90
6843;DHT22;3460;52.028;8.916;2023-02-12T04:30:58;7.10;99.90
6843;DHT22;3460;52.028;8.916;2023-02-12T04:33:33;7.10;99.90
6843;DHT22;3460;52.028;8.916;2023-02-12T04:36:04;7.10;99.90
6843;DHT22;3460;52.028;8.916;2023-02-12T04:38:34;7.10;99.90
6843;DHT22;3460;52.028;8.916;2023-02-12T04:41:04;7.10;99.90
6843;DHT22;3460;52.028;8.916;2023-02-12T04:43:33;7.10;99.90
6843;DHT22;3460;52.028;8.916;2023-02-12T04:46:01;7.10;99.90
6843;DHT22;3460;52.028;8.916;2023-02-12T04:48:29;7.10;99.90
6843;DHT22;3460;52.028;8.916;2023-02-12T04:50:56;7.10;99.90
6843;DHT22;3460;52.028;8.916;2023-02-12T04:53:22;7.10;99.90
6843;DHT22;3460;52.028;8.916;2023-02-12T04:55:49;7.10;99.90
6843;DHT22;3460;52.028;8.916;2023-02-12T04:58:16;7.10;99.90
6843;DHT22;3460;52.028;8.916;2023-02-12T05:00:43;7.10;99.90
6843;DHT22;3460;52.028;8.916;2023-02-12T05:03:09;7.10;99.90
6843;DHT22;3460;52.028;8.916;2023-02-12T05:05:37;7.10;99.90
6843;DHT22;3460;52.028;8.916;2023-02-12T05:08:04;7.10;99.90
6843;DHT22;3460;52.028;8.916;2023-02-12T05:10:31;7.10;99.90
6843;DHT22;3460;52.028;8.916;2023-02-12T05:12:57;7.10;99.90
6843;DHT22;3460;52.028;8.916;2023-02-12T05:15:24;7.10;99.90
6843;DHT22;3460;52.028;8.916;2023-02-12T05:17:50;7.10;99.90
6843;DHT22;3460;52.028;8.916;2023-02-12T05:20:17;7.10;99.90
6843;DHT22;3460;52.028;8.916;2023-02-12T05:22:45;7.10;99.90
6843;DHT22;3460;52.028;8.916;2023-02-12T05:25:16;7.10;99.90
6843;DHT22;3460;52.028;8.916;2023-02-12T05:27:42;7.10;99.90
6843;DHT22;3460;52.028;8.916;2023-02-12T05:30:10;7.10;99.90
6843;DHT22;3460;52.028;8.916;2023-02-12T05:32:37;7.10;99.90
6843;DHT22;3460;52.028;8.916;2023-02-12T05:35:04;7.10;99.90
6843;DHT22;3460;52.028;8.916;2023-02-12T05:37:33;7.10;99.90
6843;DHT22;3460;52.028;8.916;2023-02-12T05:40:02;7.10;99.90
6843;DHT22;3460;52.028;8.916;2023-02-12T05:42:29;7.10;99.90
6843;DHT22;3460;52.028;8.916;2023-02-12T05:44:55;7.10;99.90
6843;DHT22;3460;52.028;8.916;2023-02-12T05:47:22;7.10;99.90
6843;DHT22;3460;52.028;8.916;2023-02-12T05:49:48;7.10;99.90
6843;DHT22;3460;52.028;8.916;2023-02-12T05:52:15;7.10;99.90
6843;DHT22;3460;52.028;8.916;2023-02-12T05:54:42;7.10;99.90
6843;DHT22;3460;52.028;8.916;2023-02-12T05:57:09;7.10;99.90
6843;DHT22;3460;52.028;8.916;2023-02-12T05:59:36;7.10;99.90
6843;DHT22;3460;52.028;8.916;2023-02-12T06:02:03;7.10;99.90
6843;DHT22;3460;52.028;8.916;2023-02-12T06:04:30;7.10;99.90
6843;DHT22;3460;52.028;8.916;2023-02-12T06:06:56;7.10;99.90
6843;DHT22;3460;52.028;8.916;2023-02-12T06:09:23;7.00;99.90
6843;DHT22;3460;52.028;8.916;2023-02-12T06:11:50;7.10;99.90
6843;DHT22;3460;52.028;8.916;2023-02-12T06:14:19;7.10;99.90
6843;DHT22;3460;52.028;8.916;2023-02-12T06:16:47;7.10;99.90
6843;DHT22;3460;52.028;8.916;2023-02-12T06:19:14;7.10;99.90
6843;DHT22;3460;52.028;8.916;2023-02-12T06:21:41;7.10;99.90
6843;DHT22;3460;52.028;8.916;2023-02-12T06:24:09;7.00;99.90
6843;DHT22;3460;52.028;8.916;2023-02-12T06:26:36;7.00;99.90
6843;DHT22;3460;52.028;8.916;2023-02-12T06:29:03;7.00;99.90
6843;DHT22;3460;52.028;8.916;2023-02-12T06:31:32;7.00;99.90
6843;DHT22;3460;52.028;8.916;2023-02-12T06:34:01;7.00;99.90
6843;DHT22;3460;52.028;8.916;2023-02-12T06:36:28;7.00;99.90
6843;DHT22;3460;52.028;8.916;2023-02-12T06:38:55;7.00;99.90
6843;DHT22;3460;52.028;8.916;2023-02-12T06:41:22;7.00;99.90
6843;DHT22;3460;52.028;8.916;2023-02-12T06:43:49;7.00;99.90
6843;DHT22;3460;52.028;8.916;2023-02-12T06:46:16;7.00;99.90
6843;DHT22;3460;52.028;8.916;2023-02-12T06:48:44;7.00;99.90
6843;DHT22;3460;52.028;8.916;2023-02-12T06:51:13;7.00;99.90
6843;DHT22;3460;52.028;8.916;2023-02-12T06:53:41;7.00;99.90
6843;DHT22;3460;52.028;8.916;2023-02-12T06:56:09;7.00;99.90
6843;DHT22;3460;52.028;8.916;2023-02-12T06:58:38;7.00;99.90
6843;DHT22;3460;52.028;8.916;2023-02-12T07:01:08;7.00;99.90
6843;DHT22;3460;52.028;8.916;2023-02-12T07:03:38;7.00;99.90
6843;DHT22;3460;52.028;8.916;2023-02-12T07:06:06;7.00;99.90
6843;DHT22;3460;52.028;8.916;2023-02-12T07:08:33;7.00;99.90
6843;DHT22;3460;52.028;8.916;2023-02-12T07:11:00;7.00;99.90
6843;DHT22;3460;52.028;8.916;2023-02-12T07:13:26;7.00;99.90
6843;DHT22;3460;52.028;8.916;2023-02-12T07:15:53;7.00;99.90
6843;DHT22;3460;52.028;8.916;2023-02-12T07:18:19;7.00;99.90
6843;DHT22;3460;52.028;8.916;2023-02-12T07:20:46;7.00;99.90
6843;DHT22;3460;52.028;8.916;2023-02-12T07:23:14;7.00;99.90
6843;DHT22;3460;52.028;8.916;2023-02-12T07:25:40;7.00;99.90
6843;DHT22;3460;52.028;8.916;2023-02-12T07:28:07;7.10;99.90
6843;DHT22;3460;52.028;8.916;2023-02-12T07:30:34;7.10;99.90
6843;DHT22;3460;52.028;8.916;2023-02-12T07:33:00;7.10;99.90
6843;DHT22;3460;52.028;8.916;2023-02-12T07:35:27;7.00;99.90
6843;DHT22;3460;52.028;8.916;2023-02-12T07:37:53;7.00;99.90
6843;DHT22;3460;52.028;8.916;2023-02-12T07:40:21;7.00;99.90
6843;DHT22;3460;52.028;8.916;2023-02-12T07:42:48;7.00;99.90
6843;DHT22;3460;52.028;8.916;2023-02-12T07:45:19;7.00;99.90
6843;DHT22;3460;52.028;8.916;2023-02-12T07:47:46;7.00;99.90
6843;DHT22;3460;52.028;8.916;2023-02-12T07:50:12;7.00;99.90
6843;DHT22;3460;52.028;8.916;2023-02-12T07:52:39;7.10;99.90
6843;DHT22;3460;52.028;8.916;2023-02-12T07:55:06;7.10;99.90
6843;DHT22;3460;52.028;8.916;2023-02-12T07:57:35;7.10;99.90
6843;DHT22;3460;52.028;8.916;2023-02-12T08:00:03;7.10;99.90
6843;DHT22;3460;52.028;8.916;2023-02-12T08:02:29;7.10;99.90
6843;DHT22;3460;52.028;8.916;2023-02-12T08:04:57;7.10;99.90
6843;DHT22;3460;52.028;8.916;2023-02-12T08:07:23;7.10;99.90
6843;DHT22;3460;52.028;8.916;2023-02-12T08:09:50;7.10;99.90
6843;DHT22;3460;52.028;8.916;2023-02-12T08:12:18;7.10;99.90
6843;DHT22;3460;52.028;8.916;2023-02-12T08:14:46;7.10;99.90
6843;DHT22;3460;52.028;8.916;2023-02-12T08:17:12;7.10;99.90
6843;DHT22;3460;52.028;8.916;2023-02-12T08:19:39;7.10;99.90
6843;DHT22;3460;52.028;8.916;2023-02-12T08:22:06;7.10;99.90
6843;DHT22;3460;52.028;8.916;2023-02-12T08:24:32;7.10;99.90
6843;DHT22;3460;52.028;8.916;2023-02-12T08:26:59;7.20;99.90
6843;DHT22;3460;52.028;8.916;2023-02-12T08:29:27;7.20;99.90
6843;DHT22;3460;52.028;8.916;2023-02-12T08:31:57;7.20;99.90
6843;DHT22;3460;52.028;8.916;2023-02-12T08:34:25;7.20;99.90
6843;DHT22;3460;52.028;8.916;2023-02-12T08:36:53;7.20;99.90
6843;DHT22;3460;52.028;8.916;2023-02-12T08:39:20;7.20;99.90
6843;DHT22;3460;52.028;8.916;2023-02-12T08:41:47;7.20;99.90
6843;DHT22;3460;52.028;8.916;2023-02-12T08:44:15;7.20;99.90
6843;DHT22;3460;52.028;8.916;2023-02-12T08:46:44;7.30;99.90
6843;DHT22;3460;52.028;8.916;2023-02-12T08:49:14;7.30;99.90
6843;DHT22;3460;52.028;8.916;2023-02-12T08:51:42;7.30;99.90
6843;DHT22;3460;52.028;8.916;2023-02-12T08:54:11;7.30;99.90
6843;DHT22;3460;52.028;8.916;2023-02-12T08:56:38;7.30;99.90
6843;DHT22;3460;52.028;8.916;2023-02-12T08:59:06;7.30;99.90
6843;DHT22;3460;52.028;8.916;2023-02-12T09:01:35;7.30;99.90
6843;DHT22;3460;52.028;8.916;2023-02-12T09:04:03;7.30;99.90
6843;DHT22;3460;52.028;8.916;2023-02-12T09:06:33;7.40;99.90
6843;DHT22;3460;52.028;8.916;2023-02-12T09:09:00;7.40;99.90
6843;DHT22;3460;52.028;8.916;2023-02-12T09:11:28;7.40;99.90
6843;DHT22;3460;52.028;8.916;2023-02-12T09:13:56;7.40;99.90
6843;DHT22;3460;52.028;8.916;2023-02-12T09:16:24;7.40;99.90
6843;DHT22;3460;52.028;8.916;2023-02-12T09:18:50;7.40;99.90
6843;DHT22;3460;52.028;8.916;2023-02-12T09:21:17;7.40;99.90
6843;DHT22;3460;52.028;8.916;2023-02-12T09:23:46;7.40;99.90
6843;DHT22;3460;52.028;8.916;2023-02-12T09:26:15;7.50;99.90
6843;DHT22;3460;52.028;8.916;2023-02-12T09:28:42;7.50;99.90
6843;DHT22;3460;52.028;8.916;2023-02-12T09:31:11;7.50;99.90
6843;DHT22;3460;52.028;8.916;2023-02-12T09:33:38;7.50;99.90
6843;DHT22;3460;52.028;8.916;2023-02-12T09:36:06;7.50;99.90
6843;DHT22;3460;52.028;8.916;2023-02-12T09:38:34;7.50;99.90
6843;DHT22;3460;52.028;8.916;2023-02-12T09:41:20;7.60;99.90
6843;DHT22;3460;52.028;8.916;2023-02-12T09:43:52;7.60;99.90
6843;DHT22;3460;52.028;8.916;2023-02-12T09:46:26;7.60;99.90
6843;DHT22;3460;52.028;8.916;2023-02-12T09:49:02;7.70;99.90
6843;DHT22;3460;52.028;8.916;2023-02-12T09:51:32;7.70;99.90
6843;DHT22;3460;52.028;8.916;2023-02-12T09:54:03;7.70;99.90
6843;DHT22;3460;52.028;8.916;2023-02-12T09:56:33;7.80;99.90
6843;DHT22;3460;52.028;8.916;2023-02-12T09:59:03;7.80;99.90
6843;DHT22;3460;52.028;8.916;2023-02-12T10:01:30;7.80;99.90
6843;DHT22;3460;52.028;8.916;2023-02-12T10:03:57;7.80;99.90
6843;DHT22;3460;52.028;8.916;2023-02-12T10:06:25;7.90;99.90
6843;DHT22;3460;52.028;8.916;2023-02-12T10:11:53;7.90;99.90
6843;DHT22;3460;52.028;8.916;2023-02-12T10:14:34;7.90;99.90
6843;DHT22;3460;52.028;8.916;2023-02-12T10:17:12;8.00;99.90
6843;DHT22;3460;52.028;8.916;2023-02-12T10:19:59;8.00;99.90
6843;DHT22;3460;52.028;8.916;2023-02-12T10:22:31;8.00;99.90
6843;DHT22;3460;52.028;8.916;2023-02-12T10:25:11;8.00;99.90
6843;DHT22;3460;52.028;8.916;2023-02-12T10:27:45;8.00;99.90
6843;DHT22;3460;52.028;8.916;2023-02-12T10:30:19;8.00;99.90
6843;DHT22;3460;52.028;8.916;2023-02-12T10:32:49;8.00;99.90
6843;DHT22;3460;52.028;8.916;2023-02-12T10:35:18;8.10;99.90
6843;DHT22;3460;52.028;8.916;2023-02-12T10:37:49;8.10;99.90
6843;DHT22;3460;52.028;8.916;2023-02-12T10:40:19;8.20;99.90
6843;DHT22;3460;52.028;8.916;2023-02-12T10:42:50;8.10;99.90
6843;DHT22;3460;52.028;8.916;2023-02-12T10:45:18;8.10;99.90
6843;DHT22;3460;52.028;8.916;2023-02-12T10:47:48;8.10;99.90
6843;DHT22;3460;52.028;8.916;2023-02-12T10:50:24;8.10;99.90
6843;DHT22;3460;52.028;8.916;2023-02-12T10:52:56;8.20;99.90
6843;DHT22;3460;52.028;8.916;2023-02-12T10:55:27;8.20;99.90
6843;DHT22;3460;52.028;8.916;2023-02-12T10:57:56;8.20;99.90
6843;DHT22;3460;52.028;8.916;2023-02-12T11:00:26;8.20;99.90
6843;DHT22;3460;52.028;8.916;2023-02-12T11:03:03;8.20;99.90
6843;DHT22;3460;52.028;8.916;2023-02-12T11:05:32;8.30;99.90
6843;DHT22;3460;52.028;8.916;2023-02-12T11:08:00;8.30;99.90
6843;DHT22;3460;52.028;8.916;2023-02-12T11:10:28;8.40;99.90
6843;DHT22;3460;52.028;8.916;2023-02-12T11:12:57;8.40;99.90
6843;DHT22;3460;52.028;8.916;2023-02-12T11:15:26;8.30;99.90
6843;DHT22;3460;52.028;8.916;2023-02-12T11:17:57;8.30;99.90
6843;DHT22;3460;52.028;8.916;2023-02-12T11:20:26;8.30;99.90
6843;DHT22;3460;52.028;8.916;2023-02-12T11:22:56;8.30;99.90
6843;DHT22;3460;52.028;8.916;2023-02-12T11:25:25;8.30;99.90
6843;DHT22;3460;52.028;8.916;2023-02-12T11:28:15;8.20;99.90
6843;DHT22;3460;52.028;8.916;2023-02-12T11:30:53;8.20;99.90
6843;DHT22;3460;52.028;8.916;2023-02-12T11:33:29;8.20;99.90
6843;DHT22;3460;52.028;8.916;2023-02-12T11:35:58;8.20;99.90
6843;DHT22;3460;52.028;8.916;2023-02-12T11:38:31;8.10;99.90
6843;DHT22;3460;52.028;8.916;2023-02-12T11:41:03;8.10;99.90
6843;DHT22;3460;52.028;8.916;2023-02-12T11:43:34;8.10;99.90
6843;DHT22;3460;52.028;8.916;2023-02-12T11:46:02;8.10;99.90
6843;DHT22;3460;52.028;8.916;2023-02-12T11:48:31;8.20;99.90
6843;DHT22;3460;52.028;8.916;2023-02-12T11:51:02;8.10;99.90
6843;DHT22;3460;52.028;8.916;2023-02-12T11:53:31;8.10;99.90
6843;DHT22;3460;52.028;8.916;2023-02-12T11:56:00;8.10;99.90
6843;DHT22;3460;52.028;8.916;2023-02-12T11:58:28;8.10;99.90
6843;DHT22;3460;52.028;8.916;2023-02-12T12:01:04;8.10;99.90
6843;DHT22;3460;52.028;8.916;2023-02-12T12:03:39;8.20;99.90
6843;DHT22;3460;52.028;8.916;2023-02-12T12:06:15;8.10;99.90
6843;DHT22;3460;52.028;8.916;2023-02-12T12:08:48;8.20;99.90
6843;DHT22;3460;52.028;8.916;2023-02-12T12:11:19;8.20;99.90
6843;DHT22;3460;52.028;8.916;2023-02-12T12:13:49;8.20;99.90
6843;DHT22;3460;52.028;8.916;2023-02-12T12:16:23;8.30;99.90
6843;DHT22;3460;52.028;8.916;2023-02-12T12:19:14;8.30;99.90
6843;DHT22;3460;52.028;8.916;2023-02-12T12:22:03;8.30;99.90
6843;DHT22;3460;52.028;8.916;2023-02-12T12:24:38;8.20;99.90
6843;DHT22;3460;52.028;8.916;2023-02-12T12:27:11;8.20;99.90
6843;DHT22;3460;52.028;8.916;2023-02-12T12:30:02;8.20;99.90
6843;DHT22;3460;52.028;8.916;2023-02-12T12:32:33;8.20;99.90
6843;DHT22;3460;52.028;8.916;2023-02-12T12:35:01;8.20;99.90
6843;DHT22;3460;52.028;8.916;2023-02-12T12:37:34;8.20;99.90
6843;DHT22;3460;52.028;8.916;2023-02-12T12:40:18;8.20;99.90
6843;DHT22;3460;52.028;8.916;2023-02-12T12:43:02;8.20;99.90
6843;DHT22;3460;52.028;8.916;2023-02-12T12:45:57;8.30;99.90
6843;DHT22;3460;52.028;8.916;2023-02-12T12:48:38;8.40;99.90
6843;DHT22;3460;52.028;8.916;2023-02-12T12:51:19;8.40;99.90
6843;DHT22;3460;52.028;8.916;2023-02-12T12:53:58;8.40;99.90
6843;DHT22;3460;52.028;8.916;2023-02-12T12:56:40;8.40;99.90
6843;DHT22;3460;52.028;8.916;2023-02-12T12:59:32;8.40;99.90
6843;DHT22;3460;52.028;8.916;2023-02-12T13:02:28;8.40;99.90
6843;DHT22;3460;52.028;8.916;2023-02-12T13:05:21;8.40;99.90
6843;DHT22;3460;52.028;8.916;2023-02-12T13:07:55;8.40;99.90
6843;DHT22;3460;52.028;8.916;2023-02-12T13:10:32;8.40;99.90
6843;DHT22;3460;52.028;8.916;2023-02-12T13:13:21;8.40;99.90
6843;DHT22;3460;52.028;8.916;2023-02-12T13:15:56;8.40;99.90
6843;DHT22;3460;52.028;8.916;2023-02-12T13:18:33;8.40;99.90
6843;DHT22;3460;52.028;8.916;2023-02-12T13:21:09;8.30;99.90
6843;DHT22;3460;52.028;8.916;2023-02-12T13:23:44;8.20;99.90
6843;DHT22;3460;52.028;8.916;2023-02-12T13:26:15;8.30;99.90
6843;DHT22;3460;52.028;8.916;2023-02-12T13:28:46;8.20;99.90
6843;DHT22;3460;52.028;8.916;2023-02-12T13:31:18;8.30;99.90
6843;DHT22;3460;52.028;8.916;2023-02-12T13:33:49;8.30;99.90
6843;DHT22;3460;52.028;8.916;2023-02-12T13:36:18;8.20;99.90
6843;DHT22;3460;52.028;8.916;2023-02-12T13:38:48;8.10;99.90
6843;DHT22;3460;52.028;8.916;2023-02-12T13:41:16;8.10;99.90
6843;DHT22;3460;52.028;8.916;2023-02-12T13:43:57;8.10;99.90
6843;DHT22;3460;52.028;8.916;2023-02-12T13:46:32;8.20;99.90
6843;DHT22;3460;52.028;8.916;2023-02-12T13:49:12;8.10;99.90
6843;DHT22;3460;52.028;8.916;2023-02-12T13:51:45;8.10;99.90
6843;DHT22;3460;52.028;8.916;2023-02-12T13:54:20;8.10;99.90
6843;DHT22;3460;52.028;8.916;2023-02-12T13:56:51;8.10;99.90
6843;DHT22;3460;52.028;8.916;2023-02-12T13:59:41;8.10;99.90
6843;DHT22;3460;52.028;8.916;2023-02-12T14:02:27;8.10;99.90
6843;DHT22;3460;52.028;8.916;2023-02-12T14:05:28;8.10;99.90
6843;DHT22;3460;52.028;8.916;2023-02-12T14:07:58;8.10;99.90
6843;DHT22;3460;52.028;8.916;2023-02-12T14:10:29;8.10;99.90
6843;DHT22;3460;52.028;8.916;2023-02-12T14:13:08;8.10;99.90
6843;DHT22;3460;52.028;8.916;2023-02-12T14:15:36;8.10;99.90
6843;DHT22;3460;52.028;8.916;2023-02-12T14:18:11;8.00;99.90
6843;DHT22;3460;52.028;8.916;2023-02-12T14:20:46;8.00;99.90
6843;DHT22;3460;52.028;8.916;2023-02-12T14:23:31;8.00;99.90
6843;DHT22;3460;52.028;8.916;2023-02-12T14:26:01;8.00;99.90
6843;DHT22;3460;52.028;8.916;2023-02-12T14:28:33;8.00;99.90
6843;DHT22;3460;52.028;8.916;2023-02-12T14:31:28;8.00;99.90
6843;DHT22;3460;52.028;8.916;2023-02-12T14:37:34;8.10;99.90
6843;DHT22;3460;52.028;8.916;2023-02-12T14:43:30;8.10;99.90
6843;DHT22;3460;52.028;8.916;2023-02-12T14:45:59;8.10;99.90
6843;DHT22;3460;52.028;8.916;2023-02-12T14:48:50;8.10;99.90
6843;DHT22;3460;52.028;8.916;2023-02-12T14:51:21;8.10;99.90
6843;DHT22;3460;52.028;8.916;2023-02-12T14:53:50;8.00;99.90
6843;DHT22;3460;52.028;8.916;2023-02-12T14:56:19;8.10;99.90
6843;DHT22;3460;52.028;8.916;2023-02-12T14:58:48;8.10;99.90
6843;DHT22;3460;52.028;8.916;2023-02-12T15:01:16;8.00;99.90
6843;DHT22;3460;52.028;8.916;2023-02-12T15:03:49;8.00;99.90
6843;DHT22;3460;52.028;8.916;2023-02-12T15:06:18;8.00;99.90
6843;DHT22;3460;52.028;8.916;2023-02-12T15:08:50;8.00;99.90
6843;DHT22;3460;52.028;8.916;2023-02-12T15:11:29;8.00;99.90
6843;DHT22;3460;52.028;8.916;2023-02-12T15:14:01;8.00;99.90
6843;DHT22;3460;52.028;8.916;2023-02-12T15:16:37;8.00;99.90
6843;DHT22;3460;52.028;8.916;2023-02-12T15:19:19;8.10;99.90
6843;DHT22;3460;52.028;8.916;2023-02-12T15:21:52;8.10;99.90
6843;DHT22;3460;52.028;8.916;2023-02-12T15:24:21;8.10;99.90
6843;DHT22;3460;52.028;8.916;2023-02-12T15:26:49;8.20;99.90
6843;DHT22;3460;52.028;8.916;2023-02-12T15:29:20;8.30;99.90
6843;DHT22;3460;52.028;8.916;2023-02-12T15:31:52;8.30;99.90
6843;DHT22;3460;52.028;8.916;2023-02-12T15:34:22;8.30;99.90
6843;DHT22;3460;52.028;8.916;2023-02-12T15:36:50;8.30;99.90
6843;DHT22;3460;52.028;8.916;2023-02-12T15:39:18;8.30;99.90
6843;DHT22;3460;52.028;8.916;2023-02-12T15:41:47;8.30;99.90
6843;DHT22;3460;52.028;8.916;2023-02-12T15:44:20;8.30;99.90
6843;DHT22;3460;52.028;8.916;2023-02-12T15:47:10;8.30;99.90
6843;DHT22;3460;52.028;8.916;2023-02-12T15:49:39;8.20;99.90
6843;DHT22;3460;52.028;8.916;2023-02-12T15:52:09;8.20;99.90
6843;DHT22;3460;52.028;8.916;2023-02-12T15:54:37;8.10;99.90
6843;DHT22;3460;52.028;8.916;2023-02-12T15:57:08;8.10;99.90
6843;DHT22;3460;52.028;8.916;2023-02-12T15:59:35;8.10;99.90
6843;DHT22;3460;52.028;8.916;2023-02-12T16:02:02;8.10;99.90
6843;DHT22;3460;52.028;8.916;2023-02-12T16:04:31;8.00;99.90
6843;DHT22;3460;52.028;8.916;2023-02-12T16:07:00;8.00;99.90
6843;DHT22;3460;52.028;8.916;2023-02-12T16:09:30;8.00;99.90
6843;DHT22;3460;52.028;8.916;2023-02-12T16:11:59;8.00;99.90
6843;DHT22;3460;52.028;8.916;2023-02-12T16:14:32;8.00;99.90
6843;DHT22;3460;52.028;8.916;2023-02-12T16:17:19;7.90;99.90
6843;DHT22;3460;52.028;8.916;2023-02-12T16:19:53;7.90;99.90
6843;DHT22;3460;52.028;8.916;2023-02-12T16:22:24;8.00;99.90
6843;DHT22;3460;52.028;8.916;2023-02-12T16:24:52;8.00;99.90
6843;DHT22;3460;52.028;8.916;2023-02-12T16:27:23;8.00;99.90
6843;DHT22;3460;52.028;8.916;2023-02-12T16:29:52;8.10;99.90
6843;DHT22;3460;52.028;8.916;2023-02-12T16:32:28;8.10;99.90
6843;DHT22;3460;52.028;8.916;2023-02-12T16:35:00;8.00;99.90
6843;DHT22;3460;52.028;8.916;2023-02-12T16:37:47;8.00;99.90
6843;DHT22;3460;52.028;8.916;2023-02-12T16:40:24;7.90;99.90
6843;DHT22;3460;52.028;8.916;2023-02-12T16:42:59;8.00;99.90
6843;DHT22;3460;52.028;8.916;2023-02-12T16:45:41;8.00;99.90
6843;DHT22;3460;52.028;8.916;2023-02-12T16:48:18;8.00;99.90
6843;DHT22;3460;52.028;8.916;2023-02-12T16:50:48;7.90;99.90
6843;DHT22;3460;52.028;8.916;2023-02-12T16:53:39;7.90;99.90
6843;DHT22;3460;52.028;8.916;2023-02-12T16:56:12;8.00;99.90